createdAt,value
2019-01-04T00:00:00.487Z,96958.00
2019-01-04T00:02:42.592Z,96942.00
2019-01-04T00:05:24.959Z,96950.00
2019-01-04T00:08:07.350Z,96951.00
2019-01-04T00:10:49.600Z,96959.00
2019-01-04T00:13:32.736Z,96971.00
2019-01-04T00:16:14.987Z,96961.00
2019-01-04T00:18:57.592Z,96958.00
2019-01-04T00:21:47.109Z,96956.00
2019-01-04T00:24:36.665Z,96960.00
2019-01-04T00:27:19.050Z,96959.00
2019-01-04T00:30:01.678Z,96956.00
2019-01-04T00:32:43.845Z,96965.00
2019-01-04T00:35:26.419Z,96964.00
2019-01-04T00:38:08.931Z,96961.00
2019-01-04T00:40:51.616Z,96966.00
2019-01-04T00:43:33.666Z,96966.00
2019-01-04T00:46:15.544Z,96965.00
2019-01-04T00:48:58.196Z,96977.00
2019-01-04T00:51:40.735Z,96955.00
2019-01-04T00:54:23.437Z,96959.00
2019-01-04T00:57:30.842Z,96962.00
2019-01-04T01:00:32.229Z,96962.00
2019-01-04T01:03:35.875Z,96955.00
2019-01-04T01:06:40.600Z,96965.00
2019-01-04T01:09:41.672Z,96966.00
2019-01-04T01:12:42.581Z,96961.00
2019-01-04T01:15:49.710Z,96964.00
2019-01-04T01:18:51.009Z,96967.00
2019-01-04T01:21:54.511Z,96963.00
2019-01-04T01:30:57.266Z,96969.00
2019-01-04T01:34:05.871Z,96972.00
2019-01-04T01:37:33.532Z,96967.00
2019-01-04T01:40:34.655Z,96966.00
2019-01-04T01:43:35.672Z,96957.00
2019-01-04T01:49:37.433Z,96961.00
2019-01-04T01:52:22.000Z,96962.00
2019-01-04T01:55:04.808Z,96968.00
2019-01-04T01:57:46.991Z,96965.00
2019-01-04T02:00:30.723Z,96979.00
2019-01-04T02:03:13.227Z,96964.00
2019-01-04T02:06:21.808Z,96965.00
2019-01-04T02:09:07.251Z,96963.00
2019-01-04T02:11:47.439Z,96971.00
2019-01-04T02:14:30.073Z,96971.00
2019-01-04T02:17:12.488Z,96972.00
2019-01-04T02:19:54.581Z,96978.00
2019-01-04T02:22:36.564Z,96973.00
2019-01-04T02:25:21.352Z,96976.00
2019-01-04T02:28:03.499Z,96990.00
2019-01-04T02:30:45.649Z,96982.00
2019-01-04T02:33:27.845Z,96984.00
2019-01-04T02:36:09.953Z,96972.00
2019-01-04T02:38:52.136Z,96969.00
2019-01-04T02:41:34.440Z,96969.00
2019-01-04T02:47:24.945Z,96978.00
2019-01-04T02:50:07.436Z,96974.00
2019-01-04T02:52:56.973Z,96966.00
2019-01-04T02:55:39.258Z,96964.00
2019-01-04T02:58:21.398Z,96978.00
2019-01-04T03:01:03.537Z,96977.00
2019-01-04T03:03:47.850Z,96973.00
2019-01-04T03:06:29.642Z,96955.00
2019-01-04T03:09:12.286Z,96956.00
2019-01-04T03:11:54.866Z,96949.00
2019-01-04T03:14:37.268Z,96947.00
2019-01-04T03:17:19.866Z,96948.00
2019-01-04T03:20:02.330Z,96946.00
2019-01-04T03:22:44.458Z,96942.00
2019-01-04T03:25:26.760Z,96944.00
2019-01-04T03:28:08.997Z,96941.00
2019-01-04T03:30:51.334Z,96938.00
2019-01-04T03:33:33.555Z,96943.00
2019-01-04T03:39:15.194Z,96940.00
2019-01-04T03:44:57.847Z,96948.00
2019-01-04T03:47:39.965Z,96948.00
2019-01-04T03:50:22.165Z,96948.00
2019-01-04T03:53:03.939Z,96933.00
2019-01-04T03:55:45.873Z,96935.00
2019-01-04T03:58:27.651Z,96938.00
2019-01-04T04:01:36.051Z,96938.00
2019-01-04T04:04:17.801Z,96935.00
2019-01-04T04:07:26.261Z,96935.00
2019-01-04T04:10:34.880Z,96938.00
2019-01-04T04:13:24.744Z,96934.00
2019-01-04T04:16:35.568Z,96935.00
2019-01-04T04:19:17.924Z,96942.00
2019-01-04T04:22:00.164Z,96934.00
2019-01-04T04:24:42.564Z,96945.00
2019-01-04T04:27:24.812Z,96948.00
2019-01-04T04:30:07.439Z,96958.00
2019-01-04T04:32:49.858Z,96972.00
2019-01-04T04:35:31.999Z,96955.00
2019-01-04T04:38:13.903Z,96965.00
2019-01-04T04:40:56.266Z,96969.00
2019-01-04T04:44:04.664Z,96959.00
2019-01-04T04:46:47.248Z,96963.00
2019-01-04T04:49:29.344Z,96964.00
2019-01-04T04:52:12.092Z,96959.00
2019-01-04T04:54:54.840Z,96963.00
2019-01-04T04:57:38.689Z,96961.00
2019-01-04T05:00:21.017Z,96961.00
2019-01-04T05:03:03.568Z,96963.00
2019-01-04T05:05:45.572Z,96964.00
2019-01-04T05:08:27.843Z,96965.00
2019-01-04T05:11:09.840Z,96956.00
2019-01-04T05:17:06.505Z,96965.00
2019-01-04T05:19:48.600Z,96968.00
2019-01-04T05:22:30.766Z,96978.00
2019-01-04T05:25:15.468Z,96973.00
2019-01-04T05:27:58.111Z,96958.00
2019-01-04T05:30:40.322Z,96970.00
2019-01-04T05:33:22.954Z,96967.00
2019-01-04T05:36:05.157Z,96961.00
2019-01-04T05:38:47.636Z,96967.00
2019-01-04T05:41:37.184Z,96966.00
2019-01-04T05:44:19.238Z,96963.00
2019-01-04T05:47:01.772Z,96969.00
2019-01-04T05:49:44.408Z,96955.00
2019-01-04T05:52:26.480Z,96965.00
2019-01-04T05:55:08.762Z,96958.00
2019-01-04T05:57:53.779Z,96957.00
2019-01-04T06:00:36.330Z,96953.00
2019-01-04T06:03:18.351Z,96964.00
2019-01-04T06:06:00.082Z,96952.00
2019-01-04T06:08:42.770Z,96946.00
2019-01-04T06:11:24.874Z,96946.00
2019-01-04T06:14:07.462Z,96952.00
2019-01-04T06:16:49.615Z,96949.00
2019-01-04T06:19:31.929Z,96960.00
2019-01-04T06:22:14.371Z,96953.00
2019-01-04T06:24:56.601Z,96959.00
2019-01-04T06:27:38.787Z,96952.00
2019-01-04T06:30:20.925Z,96965.00
2019-01-04T06:33:03.033Z,96968.00
2019-01-04T06:35:45.461Z,96965.00
2019-01-04T06:38:27.926Z,96975.00
2019-01-04T06:41:10.295Z,96972.00
2019-01-04T06:43:52.153Z,96964.00
2019-01-04T06:47:20.537Z,96971.00
2019-01-04T06:50:10.278Z,96971.00
2019-01-04T06:56:15.456Z,96977.00
2019-01-04T06:58:57.781Z,96979.00
2019-01-04T07:02:06.434Z,96989.00
2019-01-04T07:05:06.349Z,96985.00
2019-01-04T07:07:48.444Z,96998.00
2019-01-04T07:10:30.936Z,96992.00
2019-01-04T07:13:12.946Z,97000.00
2019-01-04T07:16:00.060Z,97008.00
2019-01-04T07:18:42.509Z,97010.00
2019-01-04T07:21:51.086Z,97012.00
2019-01-04T07:24:33.237Z,97023.00
2019-01-04T07:27:15.510Z,97017.00
2019-01-04T07:33:32.305Z,97016.00
2019-01-04T07:36:14.497Z,97014.00
2019-01-04T07:39:23.139Z,97022.00
2019-01-04T07:42:05.842Z,97013.00
2019-01-04T07:44:48.207Z,97014.00
2019-01-04T07:47:30.345Z,97016.00
2019-01-04T07:50:12.421Z,97015.00
2019-01-04T07:53:02.026Z,97031.00
2019-01-04T07:55:44.669Z,97029.00
2019-01-04T07:58:26.392Z,97030.00
2019-01-04T08:01:08.329Z,97030.00
2019-01-04T08:03:53.751Z,97027.00
2019-01-04T08:06:35.763Z,97026.00
2019-01-04T08:09:18.008Z,97039.00
2019-01-04T08:12:00.266Z,97033.00
2019-01-04T08:14:42.444Z,97021.00
2019-01-04T08:17:24.616Z,97022.00
2019-01-04T08:20:06.788Z,97035.00
2019-01-04T08:22:48.510Z,97041.00
2019-01-04T08:25:30.782Z,97038.00
2019-01-04T08:28:39.399Z,97040.00
2019-01-04T08:31:22.364Z,97042.00
2019-01-04T08:34:04.804Z,97045.00
2019-01-04T08:36:46.956Z,97048.00
2019-01-04T08:39:30.132Z,97029.00
2019-01-04T08:42:15.370Z,97043.00
2019-01-04T08:48:20.076Z,97040.00
2019-01-04T08:51:02.730Z,97043.00
2019-01-04T08:54:10.043Z,97048.00
2019-01-04T08:56:50.670Z,97054.00
2019-01-04T08:59:32.777Z,97063.00
2019-01-04T09:02:14.919Z,97072.00
2019-01-04T09:04:57.037Z,97068.00
2019-01-04T09:07:46.573Z,97062.00
2019-01-04T09:10:28.301Z,97080.00
2019-01-04T09:13:13.056Z,97079.00
2019-01-04T09:15:55.069Z,97087.00
2019-01-04T09:18:37.615Z,97075.00
2019-01-04T09:27:22.570Z,97088.00
2019-01-04T09:30:05.151Z,97085.00
2019-01-04T09:32:45.762Z,97096.00
2019-01-04T09:35:54.494Z,97097.00
2019-01-04T09:42:23.329Z,97094.00
2019-01-04T09:45:05.438Z,97095.00
2019-01-04T09:47:47.812Z,97097.00
2019-01-04T09:50:56.751Z,97081.00
2019-01-04T09:53:49.148Z,97078.00
2019-01-04T09:56:31.578Z,97072.00
2019-01-04T09:59:13.739Z,97069.00
2019-01-04T10:05:10.137Z,97062.00
2019-01-04T10:07:52.218Z,97055.00
2019-01-04T10:13:37.287Z,97052.00
2019-01-04T10:16:20.026Z,97054.00
2019-01-04T10:19:09.594Z,97044.00
2019-01-04T10:22:11.361Z,97036.00
2019-01-04T10:24:54.072Z,97016.00
2019-01-04T10:27:36.374Z,97019.00
2019-01-04T10:30:27.683Z,97008.00
2019-01-04T10:33:09.661Z,97004.00
2019-01-04T10:35:51.529Z,96990.00
2019-01-04T10:38:33.569Z,96993.00
2019-01-04T10:41:42.413Z,96992.00
2019-01-04T10:44:24.519Z,96991.00
2019-01-04T10:50:28.046Z,96975.00
2019-01-04T10:53:29.500Z,96968.00
2019-01-04T10:56:11.501Z,96966.00
2019-01-04T10:59:20.682Z,96954.00
2019-01-04T11:02:10.209Z,96956.00
2019-01-04T11:04:53.882Z,96959.00
2019-01-04T11:07:38.072Z,96954.00
2019-01-04T11:10:20.554Z,96947.00
2019-01-04T11:13:02.976Z,96946.00
2019-01-04T11:15:45.036Z,96940.00
2019-01-04T11:18:27.634Z,96933.00
2019-01-04T11:21:10.655Z,96926.00
2019-01-04T11:24:38.296Z,96925.00
2019-01-04T11:27:44.529Z,96923.00
2019-01-04T11:31:14.484Z,96925.00
2019-01-04T11:34:00.140Z,96924.00
2019-01-04T11:37:23.249Z,96932.00
2019-01-04T11:40:25.237Z,96913.00
2019-01-04T11:43:23.426Z,96934.00
2019-01-04T11:46:28.434Z,96921.00
2019-01-04T11:49:29.235Z,96925.00
2019-01-04T11:52:34.241Z,96917.00
2019-01-04T11:55:15.943Z,96930.00
2019-01-04T11:57:58.463Z,96918.00
2019-01-04T12:00:40.736Z,96916.00
2019-01-04T12:03:22.894Z,96906.00
2019-01-04T12:06:05.391Z,96900.00
2019-01-04T12:08:47.555Z,96904.00
2019-01-04T12:11:56.167Z,96893.00
2019-01-04T12:15:04.774Z,96897.00
2019-01-04T12:17:46.963Z,96899.00
2019-01-04T12:20:30.648Z,96894.00
2019-01-04T12:23:20.234Z,96879.00
2019-01-04T12:26:05.325Z,96893.00
2019-01-04T12:28:47.365Z,96880.00
2019-01-04T12:31:29.676Z,96882.00
2019-01-04T12:34:16.623Z,96883.00
2019-01-04T12:36:55.972Z,96881.00
2019-01-04T12:39:38.050Z,96874.00
2019-01-04T12:42:20.308Z,96865.00
2019-01-04T12:45:19.259Z,96854.00
2019-01-04T12:47:53.617Z,96853.00
2019-01-04T12:50:37.376Z,96855.00
2019-01-04T12:53:19.233Z,96856.00
2019-01-04T12:56:01.482Z,96849.00
2019-01-04T12:58:43.477Z,96852.00
2019-01-04T13:01:29.308Z,96849.00
2019-01-04T13:04:11.180Z,96858.00
2019-01-04T13:06:53.721Z,96859.00
2019-01-04T13:09:36.024Z,96857.00
2019-01-04T13:12:22.815Z,96871.00
2019-01-04T13:18:51.897Z,96860.00
2019-01-04T13:21:35.296Z,96857.00
2019-01-04T13:24:17.663Z,96844.00
2019-01-04T13:26:59.977Z,96852.00
2019-01-04T13:29:42.050Z,96844.00
2019-01-04T13:35:28.788Z,96841.00
2019-01-04T13:38:11.435Z,96829.00
2019-01-04T13:43:53.150Z,96832.00
2019-01-04T13:46:34.942Z,96826.00
2019-01-04T13:52:19.431Z,96828.00
2019-01-04T13:55:02.050Z,96822.00
2019-01-04T13:57:43.986Z,96827.00
2019-01-04T14:00:36.592Z,96824.00
2019-01-04T14:03:18.681Z,96820.00
2019-01-04T14:06:01.066Z,96818.00
2019-01-04T14:08:44.044Z,96815.00
2019-01-04T14:11:26.678Z,96812.00
2019-01-04T14:14:08.933Z,96801.00
2019-01-04T14:16:50.903Z,96798.00
2019-01-04T14:19:32.814Z,96796.00
2019-01-04T14:22:16.671Z,96794.00
2019-01-04T14:24:59.024Z,96791.00
2019-01-04T14:27:40.925Z,96801.00
2019-01-04T14:33:19.421Z,96808.00
2019-01-04T14:36:02.173Z,96813.00
2019-01-04T14:38:44.252Z,96800.00
2019-01-04T14:41:26.913Z,96786.00
2019-01-04T14:44:08.739Z,96786.00
2019-01-04T14:46:50.770Z,96783.00
2019-01-04T14:49:33.049Z,96777.00
2019-01-04T14:55:45.570Z,96763.00
2019-01-04T14:58:27.695Z,96754.00
2019-01-04T15:01:10.241Z,96744.00
2019-01-04T15:03:52.848Z,96743.00
2019-01-04T15:06:34.652Z,96745.00
2019-01-04T15:12:45.588Z,96743.00
2019-01-04T15:15:28.190Z,96744.00
2019-01-04T15:18:36.707Z,96734.00
2019-01-04T15:21:20.658Z,96745.00
2019-01-04T15:24:02.547Z,96729.00
2019-01-04T15:27:12.679Z,96729.00
2019-01-04T15:29:55.728Z,96709.00
2019-01-04T15:32:38.353Z,96717.00
2019-01-04T15:35:20.221Z,96721.00
2019-01-04T15:38:02.552Z,96729.00
2019-01-04T15:40:45.720Z,96723.00
2019-01-04T15:43:28.319Z,96717.00
2019-01-04T15:46:36.977Z,96723.00
2019-01-04T15:49:18.928Z,96718.00
2019-01-04T15:52:00.807Z,96709.00
2019-01-04T15:54:50.637Z,96717.00
2019-01-04T15:57:40.241Z,96727.00
2019-01-04T16:00:21.937Z,96733.00
2019-01-04T16:03:04.322Z,96716.00
2019-01-04T16:05:46.734Z,96705.00
2019-01-04T16:08:28.891Z,96707.00
2019-01-04T16:14:15.680Z,96700.00
2019-01-04T16:16:58.476Z,96707.00
2019-01-04T16:19:48.369Z,96709.00
2019-01-04T16:22:32.179Z,96702.00
2019-01-04T16:25:22.876Z,96703.00
2019-01-04T16:31:19.790Z,96722.00
2019-01-04T16:34:29.017Z,96714.00
2019-01-04T16:37:11.423Z,96716.00
2019-01-04T16:39:54.264Z,96710.00
2019-01-04T16:42:43.822Z,96717.00
2019-01-04T16:45:33.417Z,96723.00
2019-01-04T16:48:15.896Z,96724.00
2019-01-04T16:50:58.154Z,96720.00
2019-01-04T16:53:40.505Z,96724.00
2019-01-04T16:56:23.180Z,96717.00
2019-01-04T16:59:05.425Z,96721.00
2019-01-04T17:01:47.891Z,96724.00
2019-01-04T17:04:30.309Z,96711.00
2019-01-04T17:07:12.595Z,96715.00
2019-01-04T17:09:55.253Z,96723.00
2019-01-04T17:12:37.400Z,96727.00
2019-01-04T17:15:19.112Z,96729.00
2019-01-04T17:18:01.133Z,96727.00
2019-01-04T17:20:43.085Z,96722.00
2019-01-04T17:23:25.407Z,96723.00
2019-01-04T17:26:07.330Z,96727.00
2019-01-04T17:28:49.815Z,96727.00
2019-01-04T17:31:32.511Z,96730.00
2019-01-04T17:37:30.713Z,96724.00
2019-01-04T17:40:12.958Z,96719.00
2019-01-04T17:42:54.756Z,96734.00
2019-01-04T17:45:36.946Z,96739.00
2019-01-04T17:48:19.789Z,96739.00
2019-01-04T17:51:01.816Z,96730.00
2019-01-04T17:53:45.022Z,96727.00
2019-01-04T17:56:27.492Z,96720.00
2019-01-04T17:59:17.011Z,96715.00
2019-01-04T18:02:17.278Z,96708.00
2019-01-04T18:04:57.979Z,96697.00
2019-01-04T18:10:45.137Z,96685.00
2019-01-04T18:13:27.109Z,96685.00
2019-01-04T18:16:09.229Z,96669.00
2019-01-04T18:18:51.564Z,96652.00
2019-01-04T18:21:41.265Z,96643.00
2019-01-04T18:24:29.021Z,96640.00
2019-01-04T18:27:11.399Z,96652.00
2019-01-04T18:29:53.791Z,96655.00
2019-01-04T18:33:02.392Z,96667.00
2019-01-04T18:35:44.600Z,96674.00
2019-01-04T18:41:27.389Z,96654.00
2019-01-04T18:44:09.982Z,96639.00
2019-01-04T18:46:54.058Z,96645.00
2019-01-04T18:49:36.144Z,96646.00
2019-01-04T18:52:18.892Z,96634.00
2019-01-04T18:55:01.164Z,96639.00
2019-01-04T19:01:13.778Z,96632.00
2019-01-04T19:04:25.954Z,96629.00
2019-01-04T19:07:09.112Z,96648.00
2019-01-04T19:09:51.776Z,96646.00
2019-01-04T19:13:00.397Z,96646.00
2019-01-04T19:15:44.521Z,96623.00
2019-01-04T19:18:27.498Z,96629.00
2019-01-04T19:21:09.656Z,96624.00
2019-01-04T19:23:53.339Z,96624.00
2019-01-04T19:29:49.400Z,96630.00
2019-01-04T19:32:29.921Z,96639.00
2019-01-04T19:35:11.940Z,96657.00
2019-01-04T19:37:55.612Z,96674.00
2019-01-04T19:40:39.011Z,96667.00
2019-01-04T19:43:21.833Z,96678.00
2019-01-04T19:46:03.531Z,96659.00
2019-01-04T19:48:50.257Z,96678.00
2019-01-04T19:51:34.998Z,96658.00
2019-01-04T19:54:16.846Z,96664.00
2019-01-04T19:56:59.569Z,96671.00
2019-01-04T19:59:45.644Z,96653.00
2019-01-04T20:02:35.574Z,96663.00
2019-01-04T20:09:41.166Z,96645.00
2019-01-04T20:12:48.046Z,96651.00
2019-01-04T20:15:52.617Z,96633.00
2019-01-04T20:18:54.422Z,96627.00
2019-01-04T20:21:55.651Z,96632.00
2019-01-04T20:24:56.402Z,96639.00
2019-01-04T20:27:56.298Z,96636.00
2019-01-04T20:31:04.768Z,96645.00
2019-01-04T20:34:06.832Z,96649.00
2019-01-04T20:37:08.378Z,96657.00
2019-01-04T20:40:09.226Z,96675.00
2019-01-04T20:43:10.536Z,96678.00
2019-01-04T20:46:14.102Z,96668.00
2019-01-04T20:49:15.778Z,96673.00
2019-01-04T20:52:16.603Z,96663.00
2019-01-04T20:55:17.476Z,96666.00
2019-01-04T20:58:24.153Z,96668.00
2019-01-04T21:01:44.317Z,96662.00
2019-01-04T21:04:45.359Z,96670.00
2019-01-04T21:07:41.397Z,96666.00
2019-01-04T21:10:42.411Z,96667.00
2019-01-04T21:13:43.295Z,96669.00
2019-01-04T21:16:44.167Z,96686.00
2019-01-04T21:19:45.152Z,96679.00
2019-01-04T21:22:49.116Z,96673.00
2019-01-04T21:25:40.177Z,96686.00
2019-01-04T21:28:41.504Z,96689.00
2019-01-04T21:31:42.865Z,96681.00
2019-01-04T21:34:44.165Z,96680.00
2019-01-04T21:37:44.124Z,96664.00
2019-01-04T21:40:45.113Z,96667.00
2019-01-04T21:43:46.490Z,96666.00
2019-01-04T21:46:47.360Z,96656.00
2019-01-04T21:49:48.127Z,96663.00
2019-01-04T21:52:48.163Z,96663.00
2019-01-04T21:55:49.544Z,96663.00
2019-01-04T21:58:50.347Z,96676.00
2019-01-04T22:01:51.616Z,96668.00
2019-01-04T22:04:52.288Z,96673.00
2019-01-04T22:07:53.844Z,96661.00
2019-01-04T22:10:54.701Z,96684.00
2019-01-04T22:13:58.355Z,96676.00
2019-01-04T22:16:59.918Z,96666.00
2019-01-04T22:20:27.407Z,96671.00
2019-01-04T22:23:28.265Z,96661.00
2019-01-04T22:26:36.767Z,96657.00
2019-01-04T22:29:38.254Z,96653.00
2019-01-04T22:32:39.039Z,96649.00
2019-01-04T22:35:42.822Z,96661.00
2019-01-04T22:38:44.164Z,96657.00
2019-01-04T22:41:44.990Z,96644.00
2019-01-04T22:44:47.828Z,96642.00
2019-01-04T22:47:54.306Z,96637.00
2019-01-04T22:53:58.318Z,96640.00
2019-01-04T22:56:59.348Z,96621.00
2019-01-04T23:00:00.159Z,96631.00
2019-01-04T23:03:01.133Z,96637.00
2019-01-04T23:06:02.441Z,96633.00
2019-01-04T23:09:03.397Z,96626.00
2019-01-04T23:12:08.977Z,96624.00
2019-01-04T23:15:09.567Z,96617.00
2019-01-04T23:18:11.115Z,96621.00
2019-01-04T23:21:10.172Z,96631.00
2019-01-04T23:30:49.965Z,96604.00
2019-01-04T23:33:51.141Z,96615.00
2019-01-04T23:36:52.495Z,96618.00
2019-01-04T23:39:54.078Z,96615.00
2019-01-04T23:42:55.209Z,96612.00
2019-01-04T23:45:55.881Z,96606.00
2019-01-04T23:48:55.666Z,96597.00
2019-01-04T23:51:59.183Z,96608.00
2019-01-04T23:55:18.741Z,96606.00
2019-01-04T23:58:18.408Z,96604.00
